Blue Ridge Highway — 3FEY4 — position and weather

sailwx.info

Track history (hours):
 
Tides and Currents Weather Stations Pressure Air Temp Water Temp Dewpoint Dewpoint Depression Visibility Wind Speed Wind Dir Waves Ship Positions

Blue Ridge Highway

Last reported at 2014-Aug-25 08:04 UTC. Time now 2014-Sep-02 23:42 UTC.
Position N 35°16' E 141°10'.
Warning: this ship's position is 8 days out of date.

Length 180 m; draft 8.9 m.

Type: Cargo ship. MMSI: 355558000.

Date/timePositionNaut miles runAvg speedWind from/ knotsBaromVisibWave heightAir tempDewpointWater temp
2014-Aug-25 08:04N 35°16' E 141°10'814.9
2014-Aug-25 07:33N 35°23' E 141°07'1615.8
2014-Aug-25 06:33N 35°39' E 141°02'1716.0
2014-Aug-25 05:31N 35°54' E 140°55'1615.9
2014-Aug-25 04:31N 36°09' E 140°47'1515.4
2014-Aug-25 03:32N 36°23' E 140°39'1 0.2
2014-Aug-24 22:33N 36°22' E 140°40'8 7.2
2014-Aug-24 21:23N 36°14' E 140°45'910.5
2014-Aug-24 20:33N 36°06' E 140°49'1515.0
2014-Aug-24 19:33N 35°52' E 140°55'1515.3
2014-Aug-24 18:33N 35°38' E 141°02'5 2.6
2014-Aug-24 16:33N 35°39' E 141°08'1714.4
2014-Aug-24 15:21N 35°25' E 140°55'1315.9
2014-Aug-24 14:32N 35°17' E 140°43'1616.3
2014-Aug-24 13:33N 35°06' E 140°29'1817.9
2014-Aug-24 12:33N 34°55' E 140°12'1616.5
2014-Aug-24 11:34N 34°45' E 139°55'1616.2
2014-Aug-24 10:33N 34°39' E 139°37'2017.0
2014-Aug-24 09:24N 34°35' E 139°14'2915.8
2014-Aug-24 07:33N 34°32' E 138°39'1916.3
2014-Aug-24 06:23N 34°38' E 138°17'11 1.1
2014-Aug-23 20:05N 34°35' E 138°30'713.4
2014-Aug-23 19:32N 34°27' E 138°30'84 5.2
2014-Aug-23 03:32N 35°27' E 139°41'0 0.0
2014-Aug-23 02:32N 35°27' E 139°41'0 0.0
2014-Aug-23 01:32N 35°27' E 139°41'0 0.0
2014-Aug-23 00:32N 35°27' E 139°41'0 0.0
2014-Aug-22 23:32N 35°27' E 139°41'0 0.0
2014-Aug-22 22:32N 35°27' E 139°41'2 1.8
2014-Aug-22 21:33N 35°26' E 139°42'1110.7
2014-Aug-22 20:33N 35°16' E 139°47'1212.4
2014-Aug-22 19:34N 35°03' E 139°44'1615.7
2014-Aug-22 18:34N 34°49' E 139°38'1615.0
2014-Aug-22 17:29N 34°37' E 139°24'4515.4
2014-Aug-22 14:33N 34°27' E 138°31'  
2014-Aug-20 09:10N 34°02' E 134°59'915.1
2014-Aug-20 08:33N 34°12' E 134°58'1312.8
2014-Aug-20 07:33N 34°24' E 135°02'1515.5
2014-Aug-20 06:34N 34°35' E 135°15'7 6.4
2014-Aug-20 05:30N 34°42' E 135°17'0 0.0
2014-Aug-20 04:24N 34°42' E 135°17'0 0.0
2014-Aug-20 03:30N 34°42' E 135°17'0 0.0
2014-Aug-20 02:18N 34°42' E 135°17'0 0.0
2014-Aug-20 01:30N 34°42' E 135°17'0 0.0
2014-Aug-20 00:30N 34°42' E 135°17'0 0.0
2014-Aug-19 23:30N 34°42' E 135°17'0 0.0
2014-Aug-19 21:30N 34°42' E 135°17'0 0.0
2014-Aug-19 20:30N 34°42' E 135°17'0 0.0
2014-Aug-19 19:30N 34°42' E 135°17'0 0.0
2014-Aug-19 18:30N 34°42' E 135°17'0 0.0
2014-Aug-19 17:30N 34°42' E 135°17'0 0.0
2014-Aug-19 16:30N 34°42' E 135°17'0 0.0
2014-Aug-19 15:30N 34°42' E 135°17'0 0.0
2014-Aug-19 13:30N 34°42' E 135°17'0 0.0
2014-Aug-19 12:24N 34°42' E 135°17'0 0.0
2014-Aug-19 11:24N 34°42' E 135°17'0 0.0
2014-Aug-19 10:24N 34°42' E 135°17'0 0.0
2014-Aug-19 09:30N 34°42' E 135°17'0 0.0
2014-Aug-19 08:24N 34°42' E 135°17'0 0.0
2014-Aug-19 07:30N 34°42' E 135°17'0 0.0
2014-Aug-19 06:18N 34°42' E 135°17'0 0.0
2014-Aug-19 05:18N 34°42' E 135°17'0 0.0
2014-Aug-19 04:24N 34°42' E 135°17'0 0.0
2014-Aug-19 03:18N 34°42' E 135°17'0 0.0
2014-Aug-19 02:30N 34°42' E 135°17'0 0.0
2014-Aug-19 01:06N 34°42' E 135°17'1 1.4
2014-Aug-19 00:33N 34°42' E 135°18'3 3.2
2014-Aug-18 23:29N 34°38' E 135°18'0 0.0
2014-Aug-18 22:23N 34°38' E 135°18'0 0.0
2014-Aug-18 21:29N 34°38' E 135°18'0 0.0
2014-Aug-18 20:29N 34°38' E 135°18'0 0.0
2014-Aug-18 19:29N 34°38' E 135°18'0 0.0
2014-Aug-18 18:29N 34°38' E 135°18'0 0.0
2014-Aug-18 17:29N 34°38' E 135°18'0 0.0
2014-Aug-18 16:29N 34°38' E 135°18'0 0.0
2014-Aug-18 15:29N 34°38' E 135°18'0 0.0
2014-Aug-18 14:29N 34°38' E 135°18'0 0.0
2014-Aug-18 13:29N 34°38' E 135°18'0 0.1
2014-Aug-18 12:29N 34°38' E 135°18'0 0.0
2014-Aug-18 11:29N 34°38' E 135°18'0 0.0
2014-Aug-18 10:29N 34°38' E 135°18'0 0.0
2014-Aug-18 09:29N 34°38' E 135°18'0 0.0
2014-Aug-18 08:29N 34°38' E 135°18'0 0.0
2014-Aug-18 07:17N 34°38' E 135°18'0 0.0
2014-Aug-18 06:29N 34°38' E 135°18'0 0.0
2014-Aug-18 05:29N 34°38' E 135°18'0 0.0
2014-Aug-18 04:29N 34°38' E 135°18'0 0.1
2014-Aug-18 03:23N 34°38' E 135°18'0 0.0
2014-Aug-18 02:29N 34°38' E 135°18'0 0.0
2014-Aug-18 01:23N 34°38' E 135°18'0 0.0
2014-Aug-18 00:33N 34°38' E 135°18'  
Track history (hours):
 
Tides and Currents Weather Stations Pressure Air Temp Water Temp Dewpoint Dewpoint Depression Visibility Wind Speed Wind Dir Waves Ship Positions

Blue Ridge Highway

Last reported at 2014-Aug-25 08:04 UTC. Time now 2014-Sep-02 23:42 UTC.
Position N 35°16' E 141°10'.
Warning: this ship's position is 8 days out of date.

Length 180 m; draft 8.9 m.

Type: Cargo ship. MMSI: 355558000.

Date/timePositionNaut miles runAvg speedWind from/ knotsBaromVisibWave heightAir tempDewpointWater temp
2014-Aug-25 08:04N 35°16' E 141°10'814.9
2014-Aug-25 07:33N 35°23' E 141°07'1615.8
2014-Aug-25 06:33N 35°39' E 141°02'1716.0
2014-Aug-25 05:31N 35°54' E 140°55'1615.9
2014-Aug-25 04:31N 36°09' E 140°47'1515.4
2014-Aug-25 03:32N 36°23' E 140°39'1 0.2
2014-Aug-24 22:33N 36°22' E 140°40'8 7.2
2014-Aug-24 21:23N 36°14' E 140°45'910.5
2014-Aug-24 20:33N 36°06' E 140°49'1515.0
2014-Aug-24 19:33N 35°52' E 140°55'1515.3
2014-Aug-24 18:33N 35°38' E 141°02'5 2.6
2014-Aug-24 16:33N 35°39' E 141°08'1714.4
2014-Aug-24 15:21N 35°25' E 140°55'1315.9
2014-Aug-24 14:32N 35°17' E 140°43'1616.3
2014-Aug-24 13:33N 35°06' E 140°29'1817.9
2014-Aug-24 12:33N 34°55' E 140°12'1616.5
2014-Aug-24 11:34N 34°45' E 139°55'1616.2
2014-Aug-24 10:33N 34°39' E 139°37'2017.0
2014-Aug-24 09:24N 34°35' E 139°14'2915.8
2014-Aug-24 07:33N 34°32' E 138°39'1916.3
2014-Aug-24 06:23N 34°38' E 138°17'11 1.1
2014-Aug-23 20:05N 34°35' E 138°30'713.4
2014-Aug-23 19:32N 34°27' E 138°30'84 5.2
2014-Aug-23 03:32N 35°27' E 139°41'0 0.0
2014-Aug-23 02:32N 35°27' E 139°41'0 0.0
2014-Aug-23 01:32N 35°27' E 139°41'0 0.0
2014-Aug-23 00:32N 35°27' E 139°41'0 0.0
2014-Aug-22 23:32N 35°27' E 139°41'0 0.0
2014-Aug-22 22:32N 35°27' E 139°41'2 1.8
2014-Aug-22 21:33N 35°26' E 139°42'1110.7
2014-Aug-22 20:33N 35°16' E 139°47'1212.4
2014-Aug-22 19:34N 35°03' E 139°44'1615.7
2014-Aug-22 18:34N 34°49' E 139°38'1615.0
2014-Aug-22 17:29N 34°37' E 139°24'4515.4
2014-Aug-22 14:33N 34°27' E 138°31'  
2014-Aug-20 09:10N 34°02' E 134°59'915.1
2014-Aug-20 08:33N 34°12' E 134°58'1312.8
2014-Aug-20 07:33N 34°24' E 135°02'1515.5
2014-Aug-20 06:34N 34°35' E 135°15'7 6.4
2014-Aug-20 05:30N 34°42' E 135°17'0 0.0
2014-Aug-20 04:24N 34°42' E 135°17'0 0.0
2014-Aug-20 03:30N 34°42' E 135°17'0 0.0
2014-Aug-20 02:18N 34°42' E 135°17'0 0.0
2014-Aug-20 01:30N 34°42' E 135°17'0 0.0
2014-Aug-20 00:30N 34°42' E 135°17'0 0.0
2014-Aug-19 23:30N 34°42' E 135°17'0 0.0
2014-Aug-19 21:30N 34°42' E 135°17'0 0.0
2014-Aug-19 20:30N 34°42' E 135°17'0 0.0
2014-Aug-19 19:30N 34°42' E 135°17'0 0.0
2014-Aug-19 18:30N 34°42' E 135°17'0 0.0
2014-Aug-19 17:30N 34°42' E 135°17'0 0.0
2014-Aug-19 16:30N 34°42' E 135°17'0 0.0
2014-Aug-19 15:30N 34°42' E 135°17'0 0.0
2014-Aug-19 13:30N 34°42' E 135°17'0 0.0
2014-Aug-19 12:24N 34°42' E 135°17'0 0.0
2014-Aug-19 11:24N 34°42' E 135°17'0 0.0
2014-Aug-19 10:24N 34°42' E 135°17'0 0.0
2014-Aug-19 09:30N 34°42' E 135°17'0 0.0
2014-Aug-19 08:24N 34°42' E 135°17'0 0.0
2014-Aug-19 07:30N 34°42' E 135°17'0 0.0
2014-Aug-19 06:18N 34°42' E 135°17'0 0.0
2014-Aug-19 05:18N 34°42' E 135°17'0 0.0
2014-Aug-19 04:24N 34°42' E 135°17'0 0.0
2014-Aug-19 03:18N 34°42' E 135°17'0 0.0
2014-Aug-19 02:30N 34°42' E 135°17'0 0.0
2014-Aug-19 01:06N 34°42' E 135°17'1 1.4
2014-Aug-19 00:33N 34°42' E 135°18'3 3.2
2014-Aug-18 23:29N 34°38' E 135°18'0 0.0
2014-Aug-18 22:23N 34°38' E 135°18'0 0.0
2014-Aug-18 21:29N 34°38' E 135°18'0 0.0
2014-Aug-18 20:29N 34°38' E 135°18'0 0.0
2014-Aug-18 19:29N 34°38' E 135°18'0 0.0
2014-Aug-18 18:29N 34°38' E 135°18'0 0.0
2014-Aug-18 17:29N 34°38' E 135°18'0 0.0
2014-Aug-18 16:29N 34°38' E 135°18'0 0.0
2014-Aug-18 15:29N 34°38' E 135°18'0 0.0
2014-Aug-18 14:29N 34°38' E 135°18'0 0.0
2014-Aug-18 13:29N 34°38' E 135°18'0 0.1
2014-Aug-18 12:29N 34°38' E 135°18'0 0.0
2014-Aug-18 11:29N 34°38' E 135°18'0 0.0
2014-Aug-18 10:29N 34°38' E 135°18'0 0.0
2014-Aug-18 09:29N 34°38' E 135°18'0 0.0
2014-Aug-18 08:29N 34°38' E 135°18'0 0.0
2014-Aug-18 07:17N 34°38' E 135°18'0 0.0
2014-Aug-18 06:29N 34°38' E 135°18'0 0.0
2014-Aug-18 05:29N 34°38' E 135°18'0 0.0
2014-Aug-18 04:29N 34°38' E 135°18'0 0.1
2014-Aug-18 03:23N 34°38' E 135°18'0 0.0
2014-Aug-18 02:29N 34°38' E 135°18'0 0.0
2014-Aug-18 01:23N 34°38' E 135°18'0 0.0
2014-Aug-18 00:33N 34°38' E 135°18'  

Dump ship's entire track history